createdAt,value
2022-12-14T00:01:19.241Z,19.70
2022-12-14T00:03:46.422Z,20.35
2022-12-14T00:06:19.472Z,20.35
2022-12-14T00:08:47.478Z,20.00
2022-12-14T00:11:14.498Z,20.55
2022-12-14T00:13:42.807Z,21.00
2022-12-14T00:16:15.351Z,21.73
2022-12-14T00:18:42.183Z,20.20
2022-12-14T00:21:11.227Z,20.95
2022-12-14T00:23:39.432Z,21.25
2022-12-14T00:26:15.459Z,20.98
2022-12-14T00:28:43.354Z,20.90
2022-12-14T00:31:11.014Z,21.17
2022-12-14T00:33:38.018Z,21.48
2022-12-14T00:36:06.243Z,20.42
2022-12-14T00:38:33.154Z,21.15
2022-12-14T00:40:59.770Z,19.48
2022-12-14T00:43:26.823Z,20.83
2022-12-14T00:45:54.164Z,20.77
2022-12-14T00:48:22.478Z,21.48
2022-12-14T00:50:50.550Z,21.55
2022-12-14T00:53:17.824Z,21.80
2022-12-14T00:55:49.437Z,20.58
2022-12-14T00:58:18.755Z,21.83
2022-12-14T01:00:45.779Z,20.13
2022-12-14T01:03:13.084Z,22.10
2022-12-14T01:05:40.190Z,20.98
2022-12-14T01:08:07.423Z,21.30
2022-12-14T01:10:34.844Z,20.85
2022-12-14T01:13:01.480Z,21.98
2022-12-14T01:15:28.074Z,19.88
2022-12-14T01:17:54.665Z,21.23
2022-12-14T01:20:21.271Z,21.95
2022-12-14T01:22:47.905Z,19.60
2022-12-14T01:25:14.498Z,19.73
2022-12-14T01:27:41.047Z,19.63
2022-12-14T01:30:07.999Z,20.15
2022-12-14T01:32:34.884Z,22.63
2022-12-14T01:35:01.604Z,20.40
2022-12-14T01:37:28.771Z,21.10
2022-12-14T01:39:55.538Z,21.00
2022-12-14T01:42:22.382Z,20.88
2022-12-14T01:44:57.524Z,22.17
2022-12-14T01:47:33.938Z,22.75
2022-12-14T01:50:11.804Z,21.17
2022-12-14T01:52:45.068Z,21.30
2022-12-14T01:55:20.440Z,21.35
2022-12-14T01:58:06.301Z,23.27
2022-12-14T02:00:33.124Z,21.98
2022-12-14T02:03:08.134Z,21.38
2022-12-14T02:05:39.487Z,22.42
2022-12-14T02:08:07.468Z,20.38
2022-12-14T02:10:34.730Z,22.20
2022-12-14T02:13:14.331Z,22.15
2022-12-14T02:15:41.822Z,22.42
2022-12-14T02:18:12.559Z,22.42
2022-12-14T02:20:52.020Z,22.80
2022-12-14T02:23:54.903Z,22.27
2022-12-14T02:26:33.417Z,22.08
2022-12-14T02:29:26.388Z,22.05
2022-12-14T02:32:31.634Z,22.38
2022-12-14T02:35:04.062Z,23.10
2022-12-14T02:37:33.446Z,21.67
2022-12-14T02:40:28.821Z,24.55
2022-12-14T02:42:58.593Z,22.60
2022-12-14T02:45:37.156Z,23.27
2022-12-14T02:48:11.732Z,23.50
2022-12-14T02:50:46.999Z,23.98
2022-12-14T02:53:21.596Z,24.48
2022-12-14T02:55:53.256Z,23.17
2022-12-14T02:58:33.017Z,22.58
2022-12-14T03:01:00.405Z,23.63
2022-12-14T03:03:27.383Z,23.05
2022-12-14T03:05:57.160Z,23.67
2022-12-14T03:08:25.545Z,23.05
2022-12-14T03:11:04.869Z,23.10
2022-12-14T03:13:37.187Z,23.75
2022-12-14T03:16:24.442Z,22.70
2022-12-14T03:18:58.892Z,23.73
2022-12-14T03:21:31.209Z,23.27
2022-12-14T03:24:00.356Z,24.50
2022-12-14T03:26:47.357Z,22.42
2022-12-14T03:29:28.447Z,22.95
2022-12-14T03:32:02.119Z,21.73
2022-12-14T03:34:34.839Z,23.10
2022-12-14T03:37:09.956Z,23.38
2022-12-14T03:39:38.887Z,23.70
2022-12-14T03:42:25.983Z,22.80
2022-12-14T03:45:04.965Z,22.27
2022-12-14T03:48:12.611Z,23.08
2022-12-14T03:50:45.373Z,24.17
2022-12-14T03:53:21.033Z,23.65
2022-12-14T03:56:04.977Z,22.17
2022-12-14T03:58:41.789Z,22.50
2022-12-14T04:01:16.922Z,23.40
2022-12-14T04:03:58.585Z,24.02
2022-12-14T04:06:39.373Z,23.55
2022-12-14T04:09:28.628Z,22.52
2022-12-14T04:12:29.970Z,22.35
2022-12-14T04:15:22.919Z,22.25
2022-12-14T04:18:11.725Z,20.70
2022-12-14T04:20:55.274Z,21.80
2022-12-14T04:23:46.373Z,21.70
2022-12-14T04:26:16.749Z,23.20
2022-12-14T04:29:19.041Z,22.48
2022-12-14T04:32:11.723Z,22.40
2022-12-14T04:34:41.182Z,23.00
2022-12-14T04:37:13.405Z,23.95
2022-12-14T04:39:47.258Z,22.38
2022-12-14T04:42:16.390Z,25.73
2022-12-14T04:44:47.319Z,24.60
2022-12-14T04:47:17.149Z,23.65
2022-12-14T04:50:00.359Z,23.92
2022-12-14T04:52:33.554Z,22.83
2022-12-14T04:55:04.039Z,25.13
2022-12-14T04:57:33.378Z,22.50
2022-12-14T05:00:02.311Z,24.48
2022-12-14T05:02:36.037Z,24.20
2022-12-14T05:05:16.337Z,24.40
2022-12-14T05:08:11.292Z,23.95
2022-12-14T05:10:53.193Z,24.27
2022-12-14T05:13:26.454Z,23.98
2022-12-14T05:18:22.429Z,22.95
2022-12-14T05:20:50.131Z,23.92
2022-12-14T05:23:17.317Z,24.45
2022-12-14T05:25:44.441Z,23.50
2022-12-14T05:28:16.444Z,26.23
2022-12-14T05:30:43.908Z,24.80
2022-12-14T05:33:21.295Z,24.75
2022-12-14T05:35:48.173Z,23.88
2022-12-14T05:38:15.002Z,24.05
2022-12-14T05:40:41.796Z,25.20
2022-12-14T05:43:12.208Z,23.75
2022-12-14T05:45:39.073Z,23.77
2022-12-14T05:48:06.059Z,24.55
2022-12-14T05:50:32.776Z,24.98
2022-12-14T05:53:00.619Z,25.38
2022-12-14T05:55:28.693Z,25.63
2022-12-14T05:57:57.234Z,23.90
2022-12-14T06:00:25.309Z,24.35
2022-12-14T06:02:55.734Z,25.02
2022-12-14T06:05:22.763Z,24.27
2022-12-14T06:07:49.640Z,23.92
2022-12-14T06:10:16.683Z,24.75
2022-12-14T06:12:44.253Z,23.35
2022-12-14T06:15:11.113Z,23.83
2022-12-14T06:17:45.876Z,24.77
2022-12-14T06:20:13.922Z,23.67
2022-12-14T06:22:47.217Z,25.13
2022-12-14T06:25:14.283Z,25.52
2022-12-14T06:27:40.851Z,25.02
2022-12-14T06:30:08.296Z,24.17
2022-12-14T06:32:34.894Z,25.48
2022-12-14T06:35:01.448Z,24.85
2022-12-14T06:37:28.064Z,25.40
2022-12-14T06:39:54.805Z,29.63
2022-12-14T06:42:21.415Z,29.30
2022-12-14T06:44:48.045Z,24.95
2022-12-14T06:47:14.749Z,26.33
2022-12-14T06:49:41.323Z,25.67
2022-12-14T06:52:07.906Z,25.10
2022-12-14T06:54:34.492Z,26.55
2022-12-14T06:57:01.490Z,27.98
2022-12-14T06:59:28.257Z,27.90
2022-12-14T07:01:54.916Z,28.15
2022-12-14T07:04:21.905Z,27.38
2022-12-14T07:06:48.563Z,28.55
2022-12-14T07:09:15.290Z,29.17
2022-12-14T07:11:42.232Z,29.63
2022-12-14T07:14:16.060Z,28.50
2022-12-14T07:16:46.520Z,29.48
2022-12-14T07:19:14.792Z,28.50
2022-12-14T07:21:41.467Z,29.90
2022-12-14T07:24:09.162Z,28.77
2022-12-14T07:26:36.305Z,27.83
2022-12-14T07:29:03.394Z,29.98
2022-12-14T07:31:30.281Z,31.33
2022-12-14T07:34:00.205Z,31.25
2022-12-14T07:36:28.748Z,31.15
2022-12-14T07:38:56.248Z,30.88
2022-12-14T07:41:30.410Z,30.88
2022-12-14T07:43:58.328Z,30.98
2022-12-14T07:46:27.318Z,30.48
2022-12-14T07:48:56.326Z,30.27
2022-12-14T07:51:28.554Z,32.00
2022-12-14T07:53:55.444Z,32.90
2022-12-14T07:56:24.884Z,31.08
2022-12-14T07:58:51.936Z,31.80
2022-12-14T08:01:27.263Z,32.28
2022-12-14T08:03:56.301Z,32.45
2022-12-14T08:06:25.533Z,30.60
2022-12-14T08:08:52.882Z,29.88
2022-12-14T08:11:19.577Z,32.95
2022-12-14T08:13:46.826Z,30.83
2022-12-14T08:16:15.713Z,31.90
2022-12-14T08:18:43.762Z,31.90
2022-12-14T08:21:12.015Z,33.92
2022-12-14T08:23:39.071Z,32.90
2022-12-14T08:26:06.512Z,31.63
2022-12-14T08:28:34.533Z,31.08
2022-12-14T08:31:10.373Z,31.52
2022-12-14T08:33:38.617Z,29.95
2022-12-14T08:36:17.296Z,29.85
2022-12-14T08:38:44.559Z,29.55
2022-12-14T08:41:13.162Z,29.45
2022-12-14T08:43:40.564Z,31.83
2022-12-14T08:46:10.936Z,30.17
2022-12-14T08:48:38.100Z,30.25
2022-12-14T08:51:07.227Z,31.52
2022-12-14T08:53:35.144Z,31.13
2022-12-14T08:56:13.101Z,32.15
2022-12-14T08:58:40.822Z,31.50
2022-12-14T09:01:13.801Z,31.88
2022-12-14T09:03:41.874Z,32.25
2022-12-14T09:06:10.349Z,33.13
2022-12-14T09:08:37.114Z,33.45
2022-12-14T09:11:04.948Z,32.92
2022-12-14T09:13:32.857Z,33.25
2022-12-14T09:16:01.596Z,33.75
2022-12-14T09:18:29.546Z,31.77
2022-12-14T09:20:57.035Z,30.48
2022-12-14T09:23:25.582Z,33.00
2022-12-14T09:26:19.858Z,31.45
2022-12-14T09:28:54.937Z,29.50
2022-12-14T09:31:23.995Z,32.72
2022-12-14T09:33:50.922Z,34.90
2022-12-14T09:36:23.648Z,33.50
2022-12-14T09:38:51.860Z,32.20
2022-12-14T09:41:36.534Z,33.67
2022-12-14T09:44:25.924Z,36.58
2022-12-14T09:47:05.849Z,33.50
2022-12-14T09:49:44.616Z,31.75
2022-12-14T09:52:23.922Z,31.95
2022-12-14T09:54:52.371Z,33.88
2022-12-14T09:57:30.466Z,32.65
2022-12-14T09:59:57.129Z,33.33
2022-12-14T10:02:33.348Z,33.53
2022-12-14T10:05:24.753Z,33.63
2022-12-14T10:08:02.886Z,32.30
2022-12-14T10:10:43.455Z,31.92
2022-12-14T10:13:24.983Z,30.27
2022-12-14T10:16:03.425Z,31.52
2022-12-14T10:19:00.563Z,30.50
2022-12-14T10:21:54.613Z,29.85
2022-12-14T10:24:25.723Z,30.00
2022-12-14T10:26:55.575Z,31.75
2022-12-14T10:29:29.131Z,31.50
2022-12-14T10:32:16.068Z,31.50
2022-12-14T10:34:46.215Z,30.27
2022-12-14T10:37:26.732Z,30.88
2022-12-14T10:40:15.473Z,30.02
2022-12-14T10:43:24.777Z,30.00
2022-12-14T10:46:14.175Z,30.42
2022-12-14T10:48:54.315Z,27.88
2022-12-14T10:51:35.288Z,29.80
2022-12-14T10:54:24.862Z,27.58
2022-12-14T10:56:51.944Z,30.83
2022-12-14T10:59:20.561Z,29.73
2022-12-14T11:01:52.471Z,29.48
2022-12-14T11:04:33.886Z,29.23
2022-12-14T11:07:07.177Z,29.65
2022-12-14T11:09:34.268Z,29.98
2022-12-14T11:12:14.331Z,27.90
2022-12-14T11:15:00.576Z,29.80
2022-12-14T11:17:44.331Z,29.20
2022-12-14T11:20:16.313Z,28.80
2022-12-14T11:22:52.118Z,29.27
2022-12-14T11:25:32.283Z,29.33
2022-12-14T11:28:02.165Z,29.23
2022-12-14T11:30:29.613Z,29.45
2022-12-14T11:32:56.432Z,29.95
2022-12-14T11:35:23.268Z,27.77
2022-12-14T11:37:50.781Z,28.35
2022-12-14T11:40:25.560Z,30.00
2022-12-14T11:42:59.460Z,27.83
2022-12-14T11:45:26.062Z,28.58
2022-12-14T11:48:11.557Z,30.17
2022-12-14T11:50:38.130Z,29.67
2022-12-14T11:53:11.228Z,30.15
2022-12-14T11:58:31.887Z,27.52
2022-12-14T12:01:04.525Z,29.95
2022-12-14T12:03:42.234Z,30.65
2022-12-14T12:06:14.920Z,31.23
2022-12-14T12:08:44.361Z,31.08
2022-12-14T12:11:24.768Z,29.08
2022-12-14T12:13:56.727Z,29.38
2022-12-14T12:16:26.500Z,28.67
2022-12-14T12:18:58.498Z,29.05
2022-12-14T12:21:28.709Z,29.95
2022-12-14T12:24:13.025Z,34.65
2022-12-14T12:27:11.690Z,35.40
2022-12-14T12:29:52.802Z,35.50
2022-12-14T12:32:22.307Z,35.47
2022-12-14T12:34:56.929Z,34.55
2022-12-14T12:37:46.321Z,37.03
2022-12-14T12:40:25.384Z,36.67
2022-12-14T12:43:13.703Z,36.97
2022-12-14T12:45:51.402Z,35.83
2022-12-14T12:48:20.995Z,34.83
2022-12-14T12:50:51.487Z,38.53
2022-12-14T12:53:22.604Z,38.15
2022-12-14T12:55:53.704Z,34.88
2022-12-14T12:58:27.645Z,36.17
2022-12-14T13:00:58.282Z,35.97
2022-12-14T13:03:32.189Z,38.25
2022-12-14T13:06:12.262Z,35.83
2022-12-14T13:08:41.124Z,37.30
2022-12-14T13:11:31.588Z,35.65
2022-12-14T13:14:26.995Z,34.40
2022-12-14T13:16:54.887Z,34.92
2022-12-14T13:19:50.609Z,34.95
2022-12-14T13:22:24.625Z,34.28
2022-12-14T13:24:57.222Z,36.15
2022-12-14T13:27:32.630Z,35.47
2022-12-14T13:30:39.350Z,36.25
2022-12-14T13:33:27.737Z,34.53
2022-12-14T13:36:25.594Z,37.88
2022-12-14T13:39:08.782Z,35.90
2022-12-14T13:42:07.015Z,34.75
2022-12-14T13:44:44.292Z,35.03
2022-12-14T13:47:21.994Z,33.72
2022-12-14T13:50:34.666Z,34.08
2022-12-14T13:52:49.829Z,35.22
2022-12-14T13:55:36.592Z,34.58
2022-12-14T13:58:33.702Z,33.17
2022-12-14T14:01:04.397Z,34.08
2022-12-14T14:03:37.329Z,32.72
2022-12-14T14:06:12.993Z,32.50
2022-12-14T14:08:44.731Z,31.65
2022-12-14T14:11:39.518Z,31.17
2022-12-14T14:14:22.459Z,29.67
2022-12-14T14:16:55.179Z,31.98
2022-12-14T14:19:26.198Z,31.25
2022-12-14T14:22:25.193Z,32.65
2022-12-14T14:24:58.725Z,34.22
2022-12-14T14:27:37.082Z,34.40
2022-12-14T14:30:23.296Z,33.45
2022-12-14T14:32:54.029Z,36.00
2022-12-14T14:35:30.334Z,37.67
2022-12-14T14:38:23.353Z,35.70
2022-12-14T14:43:54.608Z,35.13
2022-12-14T14:46:40.793Z,35.17
2022-12-14T14:49:22.048Z,37.60
2022-12-14T14:51:48.617Z,36.60
2022-12-14T14:54:56.160Z,39.10
2022-12-14T14:57:35.182Z,37.08
2022-12-14T15:00:04.347Z,38.40
2022-12-14T15:02:41.106Z,37.65
2022-12-14T15:08:22.444Z,40.15
2022-12-14T15:10:50.560Z,41.63
2022-12-14T15:13:22.842Z,41.67
2022-12-14T15:15:51.821Z,41.92
2022-12-14T15:18:24.687Z,41.78
2022-12-14T15:21:08.174Z,44.00
2022-12-14T15:23:38.802Z,42.20
2022-12-14T15:26:16.926Z,43.33
2022-12-14T15:28:47.825Z,43.00
2022-12-14T15:31:14.799Z,42.15
2022-12-14T15:33:43.466Z,41.97
2022-12-14T15:36:16.948Z,42.42
2022-12-14T15:38:54.559Z,45.00
2022-12-14T15:41:23.951Z,44.60
2022-12-14T15:43:56.463Z,43.25
2022-12-14T15:46:27.747Z,42.47
2022-12-14T15:49:04.508Z,43.97
2022-12-14T15:51:37.254Z,43.90
2022-12-14T15:54:06.456Z,43.90
2022-12-14T15:56:45.286Z,43.58
2022-12-14T15:59:22.045Z,44.35
2022-12-14T16:01:56.789Z,48.30
2022-12-14T16:04:27.836Z,47.65
2022-12-14T16:07:09.387Z,46.55
2022-12-14T16:09:50.471Z,47.75
2022-12-14T16:12:27.120Z,46.20
2022-12-14T16:14:57.546Z,42.38
2022-12-14T16:17:30.698Z,42.22
2022-12-14T16:20:04.171Z,43.30
2022-12-14T16:22:32.488Z,41.90
2022-12-14T16:25:07.549Z,45.15
2022-12-14T16:27:43.667Z,44.75
2022-12-14T16:30:27.624Z,43.88
2022-12-14T16:33:18.591Z,43.67
2022-12-14T16:35:47.786Z,42.22
2022-12-14T16:38:17.284Z,43.67
2022-12-14T16:40:53.854Z,44.05
2022-12-14T16:43:39.578Z,42.88
2022-12-14T16:46:13.628Z,44.67
2022-12-14T16:48:43.996Z,48.40
2022-12-14T16:51:32.747Z,49.58
2022-12-14T16:54:06.261Z,45.20
2022-12-14T16:56:45.587Z,45.00
2022-12-14T16:59:43.941Z,48.40
2022-12-14T17:02:47.072Z,46.05
2022-12-14T17:05:16.903Z,46.15
2022-12-14T17:07:43.900Z,45.67
2022-12-14T17:10:22.661Z,44.25
2022-12-14T17:12:49.720Z,44.10
2022-12-14T17:15:19.517Z,44.22
2022-12-14T17:17:49.496Z,44.50
2022-12-14T17:20:26.780Z,43.13
2022-12-14T17:22:58.954Z,43.53
2022-12-14T17:25:27.430Z,42.22
2022-12-14T17:27:54.827Z,43.50
2022-12-14T17:30:23.305Z,45.15
2022-12-14T17:32:50.902Z,46.10
2022-12-14T17:35:20.709Z,44.75
2022-12-14T17:37:48.082Z,46.50
2022-12-14T17:40:16.183Z,44.28
2022-12-14T17:42:47.016Z,44.03
2022-12-14T17:45:21.827Z,45.10
2022-12-14T17:47:48.744Z,45.47
2022-12-14T17:50:17.182Z,46.45
2022-12-14T17:52:44.673Z,46.35
2022-12-14T17:55:20.042Z,47.20
2022-12-14T17:57:47.328Z,43.30
2022-12-14T18:00:42.583Z,45.55
2022-12-14T18:03:11.224Z,41.22
2022-12-14T18:05:43.503Z,43.65
2022-12-14T18:08:13.363Z,42.08
2022-12-14T18:10:41.551Z,42.38
2022-12-14T18:13:08.202Z,44.85
2022-12-14T18:15:43.989Z,43.55
2022-12-14T18:18:20.935Z,46.05
2022-12-14T18:21:03.310Z,45.83
2022-12-14T18:23:31.724Z,47.03
2022-12-14T18:26:00.059Z,45.50
2022-12-14T18:28:26.732Z,45.03
2022-12-14T18:30:56.574Z,45.05
2022-12-14T18:33:26.107Z,45.00
2022-12-14T18:35:54.148Z,44.10
2022-12-14T18:38:20.804Z,43.88
2022-12-14T18:40:50.168Z,46.35
2022-12-14T18:43:23.118Z,43.90
2022-12-14T18:45:51.737Z,35.87
2022-12-14T18:48:18.908Z,44.08
2022-12-14T18:50:45.900Z,46.95
2022-12-14T18:53:18.619Z,44.03
2022-12-14T18:55:45.423Z,45.90
2022-12-14T18:58:22.001Z,44.95
2022-12-14T19:00:54.562Z,45.15
2022-12-14T19:03:21.904Z,42.95
2022-12-14T19:05:48.879Z,42.67
2022-12-14T19:08:15.526Z,44.92
2022-12-14T19:10:45.451Z,43.08
2022-12-14T19:13:24.751Z,44.22
2022-12-14T19:15:52.421Z,41.63
2022-12-14T19:18:19.166Z,39.13
2022-12-14T19:20:45.817Z,39.63
2022-12-14T19:23:17.618Z,41.30
2022-12-14T19:25:44.774Z,40.47
2022-12-14T19:28:30.867Z,38.70
2022-12-14T19:30:58.190Z,36.10
2022-12-14T19:33:25.597Z,37.28
2022-12-14T19:35:52.804Z,37.70
2022-12-14T19:38:19.641Z,38.28
2022-12-14T19:41:02.466Z,35.67
2022-12-14T19:43:30.354Z,35.53
2022-12-14T19:45:57.459Z,41.85
2022-12-14T19:48:24.660Z,125.82
2022-12-14T19:50:51.415Z,50.65
2022-12-14T19:53:23.237Z,52.08
2022-12-14T19:55:52.680Z,36.47
2022-12-14T19:58:21.848Z,32.92
2022-12-14T20:00:49.769Z,35.50
2022-12-14T20:03:16.722Z,33.55
2022-12-14T20:06:01.249Z,33.55
2022-12-14T20:08:29.657Z,32.33
2022-12-14T20:10:56.898Z,32.70
2022-12-14T20:13:25.739Z,32.83
2022-12-14T20:15:55.115Z,33.03
2022-12-14T20:18:22.616Z,32.70
2022-12-14T20:20:50.180Z,32.70
2022-12-14T20:23:18.395Z,33.63
2022-12-14T20:25:45.127Z,32.63
2022-12-14T20:28:11.811Z,32.50
2022-12-14T20:30:47.115Z,32.85
2022-12-14T20:33:14.311Z,33.72
2022-12-14T20:35:40.902Z,32.30
2022-12-14T20:38:07.800Z,32.75
2022-12-14T20:40:38.564Z,30.23
2022-12-14T20:43:06.238Z,28.77
2022-12-14T20:45:40.903Z,29.25
2022-12-14T20:48:08.446Z,30.30
2022-12-14T20:50:37.052Z,29.95
2022-12-14T20:53:04.179Z,30.02
2022-12-14T20:55:30.880Z,29.48
2022-12-14T20:57:57.916Z,28.55
2022-12-14T21:00:24.975Z,28.55
2022-12-14T21:02:52.309Z,29.10
2022-12-14T21:05:18.988Z,29.75
2022-12-14T21:07:45.962Z,29.05
2022-12-14T21:10:12.619Z,28.20
2022-12-14T21:12:39.211Z,28.83
2022-12-14T21:15:06.269Z,26.95
2022-12-14T21:17:33.662Z,29.08
2022-12-14T21:20:00.604Z,28.55
2022-12-14T21:22:30.200Z,28.52
2022-12-14T21:25:06.003Z,27.88
2022-12-14T21:27:34.972Z,27.95
2022-12-14T21:30:01.865Z,28.17
2022-12-14T21:32:28.815Z,29.15
2022-12-14T21:34:55.492Z,29.10
2022-12-14T21:37:22.172Z,26.83
2022-12-14T21:39:54.191Z,27.80
2022-12-14T21:42:23.395Z,29.33
2022-12-14T21:44:51.700Z,28.38
2022-12-14T21:47:24.106Z,26.80
2022-12-14T21:49:51.830Z,26.92
2022-12-14T21:52:21.057Z,30.00
2022-12-14T21:54:47.711Z,28.15
2022-12-14T21:57:34.868Z,28.85
2022-12-14T22:00:01.985Z,27.63
2022-12-14T22:02:29.333Z,27.85
2022-12-14T22:04:56.279Z,28.08
2022-12-14T22:07:28.648Z,27.08
2022-12-14T22:09:55.744Z,29.92
2022-12-14T22:12:22.763Z,27.38
2022-12-14T22:14:49.863Z,27.83
2022-12-14T22:17:16.480Z,27.80
2022-12-14T22:19:43.099Z,26.35
2022-12-14T22:22:15.155Z,27.20
2022-12-14T22:24:42.598Z,28.35
2022-12-14T22:27:11.303Z,27.33
2022-12-14T22:29:37.899Z,26.90
2022-12-14T22:32:04.850Z,27.30
2022-12-14T22:34:31.517Z,26.25
2022-12-14T22:36:58.111Z,30.73
2022-12-14T22:39:24.774Z,28.60
2022-12-14T22:41:51.428Z,29.00
2022-12-14T22:44:18.029Z,30.17
2022-12-14T22:46:44.703Z,29.45
2022-12-14T22:49:16.573Z,29.45
2022-12-14T22:51:43.417Z,28.27
2022-12-14T22:54:16.991Z,29.30
2022-12-14T22:56:49.414Z,26.80
2022-12-14T22:59:23.495Z,28.80
2022-12-14T23:01:50.710Z,30.65
2022-12-14T23:04:18.012Z,30.63
2022-12-14T23:06:45.200Z,30.55
2022-12-14T23:09:30.218Z,31.70
2022-12-14T23:12:21.238Z,31.00
2022-12-14T23:15:07.358Z,30.33
2022-12-14T23:17:53.053Z,32.65
2022-12-14T23:20:38.530Z,30.13
2022-12-14T23:23:25.091Z,31.50
2022-12-14T23:26:10.438Z,33.05
2022-12-14T23:28:55.692Z,32.75
2022-12-14T23:31:41.198Z,31.30
2022-12-14T23:34:26.835Z,31.13
2022-12-14T23:37:16.491Z,30.00
2022-12-14T23:40:05.081Z,30.85
2022-12-14T23:42:50.557Z,33.45
2022-12-14T23:45:35.920Z,32.22
2022-12-14T23:48:21.329Z,30.45
2022-12-14T23:51:06.842Z,32.30
2022-12-14T23:53:52.122Z,34.35
2022-12-14T23:56:37.547Z,38.17
2022-12-14T23:59:28.009Z,37.97
